createdAt,value
2023-03-16T00:00:21.543Z,99889.75
2023-03-16T00:02:49.190Z,99892.94
2023-03-16T00:05:16.779Z,99892.00
2023-03-16T00:07:44.111Z,99902.31
2023-03-16T00:10:13.389Z,99901.84
2023-03-16T00:12:43.505Z,99902.13
2023-03-16T00:15:13.770Z,99902.50
2023-03-16T00:17:41.480Z,99904.34
2023-03-16T00:20:09.853Z,99910.50
2023-03-16T00:22:37.237Z,99914.19
2023-03-16T00:25:05.556Z,99914.25
2023-03-16T00:27:32.992Z,99913.53
2023-03-16T00:30:03.297Z,99920.91
2023-03-16T00:32:36.664Z,99920.94
2023-03-16T00:35:04.289Z,99910.41
2023-03-16T00:37:36.816Z,99910.34
2023-03-16T00:40:04.556Z,99915.06
2023-03-16T00:42:34.226Z,99916.78
2023-03-16T00:45:01.778Z,99911.72
2023-03-16T00:47:32.720Z,99913.44
2023-03-16T00:50:01.682Z,99916.97
2023-03-16T00:52:29.583Z,99920.81
2023-03-16T00:54:58.455Z,99923.22
2023-03-16T00:57:28.653Z,99918.88
2023-03-16T00:59:56.464Z,99922.44
2023-03-16T01:02:24.836Z,99921.53
2023-03-16T01:04:54.763Z,99928.06
2023-03-16T01:07:22.484Z,99933.25
2023-03-16T01:09:51.472Z,99931.41
2023-03-16T01:12:19.785Z,99924.66
2023-03-16T01:14:47.711Z,99927.28
2023-03-16T01:17:17.218Z,99929.41
2023-03-16T01:19:45.766Z,99933.41
2023-03-16T01:22:13.627Z,99934.50
2023-03-16T01:24:41.334Z,99928.81
2023-03-16T01:27:09.235Z,99933.78
2023-03-16T01:29:37.690Z,99931.34
2023-03-16T01:32:06.494Z,99936.03
2023-03-16T01:34:34.706Z,99934.09
2023-03-16T01:37:02.514Z,99939.59
2023-03-16T01:39:30.426Z,99942.72
2023-03-16T01:41:58.150Z,99943.16
2023-03-16T01:44:32.673Z,99941.28
2023-03-16T01:47:00.914Z,99939.81
2023-03-16T01:49:36.848Z,99940.69
2023-03-16T01:52:34.372Z,99945.22
2023-03-16T01:55:08.294Z,99942.22
2023-03-16T01:57:39.944Z,99946.09
2023-03-16T02:00:11.021Z,99945.78
2023-03-16T02:02:43.704Z,99945.19
2023-03-16T02:05:14.534Z,99954.94
2023-03-16T02:07:45.543Z,99963.06
2023-03-16T02:10:16.293Z,99964.63
2023-03-16T02:12:44.389Z,99975.25
2023-03-16T02:15:13.913Z,99971.78
2023-03-16T02:17:43.397Z,99977.13
2023-03-16T02:20:24.397Z,99979.03
2023-03-16T02:22:56.397Z,99982.62
2023-03-16T02:25:36.255Z,99983.19
2023-03-16T02:28:10.028Z,99985.69
2023-03-16T02:30:39.777Z,99983.69
2023-03-16T02:33:07.739Z,99993.94
2023-03-16T02:35:35.181Z,99986.50
2023-03-16T02:38:02.921Z,99987.84
2023-03-16T02:40:33.361Z,99997.75
2023-03-16T02:43:05.629Z,100001.09
2023-03-16T02:45:42.684Z,99997.91
2023-03-16T02:48:15.038Z,100002.19
2023-03-16T02:50:46.985Z,100009.66
2023-03-16T02:53:15.684Z,100005.88
2023-03-16T02:55:44.938Z,100005.00
2023-03-16T02:58:13.947Z,100010.75
2023-03-16T03:00:42.329Z,100016.31
2023-03-16T03:03:10.030Z,100018.50
2023-03-16T03:05:38.557Z,100026.22
2023-03-16T03:08:06.640Z,100026.38
2023-03-16T03:10:34.658Z,100031.03
2023-03-16T03:13:02.017Z,100038.00
2023-03-16T03:15:29.442Z,100041.91
2023-03-16T03:17:58.083Z,100041.81
2023-03-16T03:20:25.810Z,100041.47
2023-03-16T03:22:54.371Z,100046.12
2023-03-16T03:25:22.788Z,100053.69
2023-03-16T03:27:54.524Z,100053.53
2023-03-16T03:30:24.515Z,100055.69
2023-03-16T03:32:54.924Z,100066.09
2023-03-16T03:35:22.942Z,100063.31
2023-03-16T03:37:50.440Z,100062.66
2023-03-16T03:40:19.060Z,100064.75
2023-03-16T03:42:47.564Z,100072.03
2023-03-16T03:45:15.636Z,100071.72
2023-03-16T03:47:43.557Z,100079.31
2023-03-16T03:50:13.844Z,100082.13
2023-03-16T03:52:42.390Z,100080.28
2023-03-16T03:55:09.911Z,100080.06
2023-03-16T03:57:37.605Z,100084.13
2023-03-16T04:00:09.730Z,100084.91
2023-03-16T04:02:40.595Z,100087.84
2023-03-16T04:05:09.650Z,100085.13
2023-03-16T04:07:37.326Z,100085.94
2023-03-16T04:10:06.396Z,100091.41
2023-03-16T04:12:34.626Z,100090.78
2023-03-16T04:15:03.565Z,100097.72
2023-03-16T04:17:31.715Z,100093.78
2023-03-16T04:19:59.706Z,100095.91
2023-03-16T04:22:27.130Z,100100.19
2023-03-16T04:24:54.656Z,100103.31
2023-03-16T04:27:23.191Z,100103.31
2023-03-16T04:29:50.597Z,100113.78
2023-03-16T04:32:17.990Z,100112.41
2023-03-16T04:34:47.166Z,100117.94
2023-03-16T04:37:14.886Z,100122.56
2023-03-16T04:39:42.714Z,100121.25
2023-03-16T04:42:10.649Z,100127.63
2023-03-16T04:44:44.247Z,100128.75
2023-03-16T04:47:14.335Z,100128.41
2023-03-16T04:49:42.530Z,100127.25
2023-03-16T04:52:11.081Z,100139.84
2023-03-16T04:54:39.243Z,100146.69
2023-03-16T04:57:08.655Z,100152.53
2023-03-16T04:59:36.516Z,100145.63
2023-03-16T05:02:04.917Z,100152.34
2023-03-16T05:04:32.365Z,100162.09
2023-03-16T05:07:00.171Z,100160.47
2023-03-16T05:09:28.176Z,100160.16
2023-03-16T05:11:56.229Z,100160.34
2023-03-16T05:14:23.687Z,100170.03
2023-03-16T05:16:52.540Z,100169.63
2023-03-16T05:19:20.786Z,100176.59
2023-03-16T05:21:49.297Z,100173.06
2023-03-16T05:24:18.021Z,100178.31
2023-03-16T05:26:45.488Z,100174.09
2023-03-16T05:29:13.055Z,100174.31
2023-03-16T05:31:40.926Z,100174.53
2023-03-16T05:34:08.740Z,100173.72
2023-03-16T05:36:36.472Z,100174.34
2023-03-16T05:39:05.280Z,100179.25
2023-03-16T05:41:33.801Z,100185.50
2023-03-16T05:44:01.562Z,100178.06
2023-03-16T05:46:29.893Z,100172.81
2023-03-16T05:48:57.492Z,100184.91
2023-03-16T05:51:27.923Z,100187.75
2023-03-16T05:53:58.907Z,100185.09
2023-03-16T05:56:28.118Z,100192.44
2023-03-16T05:58:56.978Z,100194.72
2023-03-16T06:01:24.968Z,100202.09
2023-03-16T06:03:52.901Z,100200.34
2023-03-16T06:06:22.513Z,100202.97
2023-03-16T06:08:50.866Z,100210.19
2023-03-16T06:11:18.936Z,100203.53
2023-03-16T06:13:46.474Z,100205.47
2023-03-16T06:16:14.626Z,100204.19
2023-03-16T06:18:42.752Z,100219.56
2023-03-16T06:21:13.130Z,100222.69
2023-03-16T06:23:41.280Z,100221.34
2023-03-16T06:26:09.395Z,100223.72
2023-03-16T06:28:37.201Z,100229.03
2023-03-16T06:31:04.600Z,100233.72
2023-03-16T06:33:32.312Z,100229.72
2023-03-16T06:35:59.746Z,100238.16
2023-03-16T06:38:27.748Z,100247.78
2023-03-16T06:40:56.489Z,100246.63
2023-03-16T06:43:24.077Z,100251.97
2023-03-16T06:45:51.916Z,100247.09
2023-03-16T06:48:19.801Z,100254.25
2023-03-16T06:50:47.633Z,100257.53
2023-03-16T06:53:15.292Z,100262.38
2023-03-16T06:55:43.222Z,100272.22
2023-03-16T06:58:11.674Z,100266.75
2023-03-16T07:00:39.219Z,100273.28
2023-03-16T07:03:07.676Z,100277.56
2023-03-16T07:05:35.837Z,100279.78
2023-03-16T07:08:04.959Z,100285.31
2023-03-16T07:10:32.827Z,100284.28
2023-03-16T07:13:00.468Z,100281.81
2023-03-16T07:15:27.902Z,100278.34
2023-03-16T07:17:55.813Z,100291.59
2023-03-16T07:20:23.808Z,100300.88
2023-03-16T07:22:52.385Z,100305.56
2023-03-16T07:25:20.536Z,100301.94
2023-03-16T07:27:49.288Z,100312.66
2023-03-16T07:30:17.763Z,100314.44
2023-03-16T07:32:46.414Z,100316.72
2023-03-16T07:35:14.776Z,100324.34
2023-03-16T07:37:42.290Z,100329.91
2023-03-16T07:40:10.998Z,100325.22
2023-03-16T07:42:38.645Z,100324.81
2023-03-16T07:45:08.915Z,100318.25
2023-03-16T07:47:36.648Z,100327.00
2023-03-16T07:50:04.715Z,100330.66
2023-03-16T07:52:35.860Z,100327.72
2023-03-16T07:55:05.770Z,100331.03
2023-03-16T07:57:33.740Z,100325.00
2023-03-16T08:00:05.069Z,100336.75
2023-03-16T08:02:40.512Z,100337.06
2023-03-16T08:05:12.757Z,100326.19
2023-03-16T08:07:41.243Z,100330.25
2023-03-16T08:10:09.926Z,100333.28
2023-03-16T08:12:37.938Z,100337.22
2023-03-16T08:15:06.219Z,100329.44
2023-03-16T08:17:34.365Z,100336.63
2023-03-16T08:20:10.743Z,100345.06
2023-03-16T08:22:38.686Z,100343.75
2023-03-16T08:25:07.300Z,100353.06
2023-03-16T08:27:34.807Z,100352.09
2023-03-16T08:30:05.535Z,100350.47
2023-03-16T08:32:34.123Z,100354.25
2023-03-16T08:35:01.629Z,100349.28
2023-03-16T08:37:29.432Z,100349.09
2023-03-16T08:39:57.782Z,100357.88
2023-03-16T08:42:25.284Z,100352.75
2023-03-16T08:44:55.187Z,100352.09
2023-03-16T08:47:24.306Z,100343.31
2023-03-16T08:49:52.198Z,100341.47
2023-03-16T08:52:19.993Z,100340.94
2023-03-16T08:55:01.884Z,100336.28
2023-03-16T08:57:30.716Z,100341.97
2023-03-16T08:59:58.354Z,100338.13
2023-03-16T09:02:26.625Z,100332.22
2023-03-16T09:04:54.765Z,100339.00
2023-03-16T09:07:22.674Z,100344.66
2023-03-16T09:09:50.785Z,100336.25
2023-03-16T09:12:18.685Z,100333.22
2023-03-16T09:14:46.162Z,100340.41
2023-03-16T09:17:13.478Z,100340.41
2023-03-16T09:19:51.165Z,100335.63
2023-03-16T09:22:20.665Z,100348.44
2023-03-16T09:24:48.731Z,100348.63
2023-03-16T09:27:16.890Z,100350.44
2023-03-16T09:29:45.340Z,100353.91
2023-03-16T09:32:14.115Z,100345.41
2023-03-16T09:34:41.848Z,100336.03
2023-03-16T09:37:09.869Z,100356.88
2023-03-16T09:39:38.286Z,100348.94
2023-03-16T09:42:33.293Z,100362.03
2023-03-16T09:45:18.704Z,100356.88
2023-03-16T09:47:46.636Z,100364.06
2023-03-16T09:50:22.409Z,100355.28
2023-03-16T09:53:02.490Z,100366.63
2023-03-16T09:55:38.799Z,100354.47
2023-03-16T09:58:19.592Z,100358.81
2023-03-16T10:01:15.907Z,100357.00
2023-03-16T10:03:57.168Z,100368.12
2023-03-16T10:06:25.443Z,100366.41
2023-03-16T10:09:15.366Z,100359.53
2023-03-16T10:11:46.913Z,100364.72
2023-03-16T10:14:26.519Z,100368.28
2023-03-16T10:17:37.359Z,100361.53
2023-03-16T10:20:09.106Z,100357.19
2023-03-16T10:22:44.004Z,100360.72
2023-03-16T10:25:29.642Z,100361.53
2023-03-16T10:27:57.443Z,100366.56
2023-03-16T10:30:31.130Z,100367.91
2023-03-16T10:33:13.610Z,100358.59
2023-03-16T10:35:48.308Z,100365.25
2023-03-16T10:38:43.010Z,100364.44
2023-03-16T10:41:22.595Z,100363.81
2023-03-16T10:43:55.564Z,100363.09
2023-03-16T10:46:25.894Z,100362.31
2023-03-16T10:49:00.302Z,100362.41
2023-03-16T10:51:34.773Z,100360.56
2023-03-16T10:54:10.880Z,100357.66
2023-03-16T10:56:38.592Z,100356.06
2023-03-16T10:59:27.761Z,100359.47
2023-03-16T11:01:55.446Z,100350.00
2023-03-16T11:04:22.869Z,100350.16
2023-03-16T11:06:56.106Z,100355.41
2023-03-16T11:09:41.704Z,100358.75
2023-03-16T11:12:20.185Z,100355.41
2023-03-16T11:14:49.219Z,100351.97
2023-03-16T11:17:25.205Z,100352.03
2023-03-16T11:19:54.603Z,100348.56
2023-03-16T11:22:25.365Z,100341.56
2023-03-16T11:24:56.128Z,100349.31
2023-03-16T11:27:43.670Z,100338.94
2023-03-16T11:30:57.396Z,100331.16
2023-03-16T11:33:27.170Z,100345.09
2023-03-16T11:36:17.745Z,100333.78
2023-03-16T11:39:12.764Z,100327.72
2023-03-16T11:41:56.478Z,100322.47
2023-03-16T11:44:44.700Z,100325.94
2023-03-16T11:47:36.701Z,100322.47
2023-03-16T11:50:13.061Z,100321.59
2023-03-16T11:52:50.211Z,100324.16
2023-03-16T11:55:54.829Z,100323.34
2023-03-16T11:58:49.827Z,100312.03
2023-03-16T12:01:31.281Z,100296.38
2023-03-16T12:04:07.912Z,100305.94
2023-03-16T12:06:40.539Z,100308.56
2023-03-16T12:09:30.203Z,100305.94
2023-03-16T12:12:06.995Z,100304.19
2023-03-16T12:14:38.764Z,100307.66
2023-03-16T12:17:14.818Z,100301.56
2023-03-16T12:19:55.036Z,100294.66
2023-03-16T12:22:28.458Z,100303.34
2023-03-16T12:24:56.175Z,100303.34
2023-03-16T12:27:33.461Z,100297.22
2023-03-16T12:30:24.825Z,100301.59
2023-03-16T12:33:04.023Z,100297.19
2023-03-16T12:35:49.553Z,100293.75
2023-03-16T12:38:30.042Z,100310.31
2023-03-16T12:41:19.792Z,100305.94
2023-03-16T12:44:10.475Z,100307.72
2023-03-16T12:47:09.279Z,100297.25
2023-03-16T12:49:37.169Z,100294.59
2023-03-16T12:52:09.585Z,100292.88
2023-03-16T12:54:38.877Z,100290.31
2023-03-16T12:57:08.528Z,100299.00
2023-03-16T12:59:42.770Z,100283.31
2023-03-16T13:02:24.982Z,100292.88
2023-03-16T13:05:02.088Z,100293.75
2023-03-16T13:07:31.248Z,100310.31
2023-03-16T13:10:03.181Z,100306.78
2023-03-16T13:12:32.982Z,100287.63
2023-03-16T13:15:00.348Z,100285.91
2023-03-16T13:17:30.157Z,100289.44
2023-03-16T13:20:04.047Z,100304.19
2023-03-16T13:22:42.982Z,100306.81
2023-03-16T13:25:36.754Z,100312.03
2023-03-16T13:28:06.120Z,100310.28
2023-03-16T13:30:35.019Z,100299.00
2023-03-16T13:33:19.713Z,100301.59
2023-03-16T13:35:52.390Z,100301.59
2023-03-16T13:38:30.377Z,100308.56
2023-03-16T13:41:03.504Z,100301.63
2023-03-16T13:43:37.183Z,100309.41
2023-03-16T13:46:17.067Z,100308.50
2023-03-16T13:48:47.341Z,100303.28
2023-03-16T13:51:18.144Z,100299.00
2023-03-16T13:53:45.632Z,100312.00
2023-03-16T13:56:15.179Z,100297.19
2023-03-16T13:58:46.018Z,100301.50
2023-03-16T14:01:23.748Z,100307.56
2023-03-16T14:03:51.467Z,100298.88
2023-03-16T14:06:30.523Z,100296.28
2023-03-16T14:09:02.848Z,100291.16
2023-03-16T14:11:30.419Z,100295.50
2023-03-16T14:13:59.429Z,100299.84
2023-03-16T14:16:29.753Z,100311.16
2023-03-16T14:19:04.325Z,100305.06
2023-03-16T14:21:34.383Z,100317.22
2023-03-16T14:24:04.674Z,100316.34
2023-03-16T14:26:44.347Z,100302.47
2023-03-16T14:29:20.829Z,100311.16
2023-03-16T14:31:48.682Z,100315.47
2023-03-16T14:34:40.903Z,100305.06
2023-03-16T14:37:13.787Z,100306.81
2023-03-16T14:39:41.563Z,100328.56
2023-03-16T14:42:18.117Z,100319.00
2023-03-16T14:44:46.484Z,100321.59
2023-03-16T14:47:24.652Z,100316.38
2023-03-16T14:49:53.289Z,100310.31
2023-03-16T14:52:25.490Z,100314.63
2023-03-16T14:54:55.013Z,100331.16
2023-03-16T14:57:22.772Z,100321.59
2023-03-16T14:59:50.397Z,100324.19
2023-03-16T15:02:22.218Z,100329.44
2023-03-16T15:04:50.044Z,100320.72
2023-03-16T15:07:30.669Z,100320.75
2023-03-16T15:10:10.685Z,100322.50
2023-03-16T15:12:38.157Z,100319.84
2023-03-16T15:15:16.137Z,100322.47
2023-03-16T15:17:46.452Z,100325.09
2023-03-16T15:20:16.605Z,100329.41
2023-03-16T15:22:44.411Z,100319.84
2023-03-16T15:25:38.276Z,100329.31
2023-03-16T15:28:15.960Z,100325.03
2023-03-16T15:30:51.323Z,100332.72
2023-03-16T15:33:19.720Z,100331.87
2023-03-16T15:35:49.207Z,100341.28
2023-03-16T15:38:33.331Z,100344.06
2023-03-16T15:41:01.018Z,100338.69
2023-03-16T15:43:30.669Z,100342.31
2023-03-16T15:45:59.935Z,100347.53
2023-03-16T15:48:27.617Z,100350.28
2023-03-16T15:50:57.418Z,100354.66
2023-03-16T15:53:38.390Z,100348.53
2023-03-16T15:56:08.826Z,100357.06
2023-03-16T15:58:36.700Z,100353.50
2023-03-16T16:01:05.284Z,100359.59
2023-03-16T16:03:33.831Z,100360.56
2023-03-16T16:06:01.876Z,100360.53
2023-03-16T16:08:29.203Z,100363.81
2023-03-16T16:10:57.118Z,100364.81
2023-03-16T16:13:43.192Z,100373.50
2023-03-16T16:16:14.565Z,100379.69
2023-03-16T16:18:42.387Z,100382.22
2023-03-16T16:21:23.105Z,100378.72
2023-03-16T16:23:52.790Z,100383.03
2023-03-16T16:26:46.948Z,100387.47
2023-03-16T16:29:24.268Z,100389.97
2023-03-16T16:31:52.229Z,100394.44
2023-03-16T16:34:24.163Z,100403.88
2023-03-16T16:36:51.821Z,100402.00
2023-03-16T16:39:19.260Z,100403.88
2023-03-16T16:41:48.769Z,100406.47
2023-03-16T16:44:23.394Z,100421.19
2023-03-16T16:46:52.141Z,100420.41
2023-03-16T16:49:21.089Z,100433.37
2023-03-16T16:51:48.514Z,100428.13
2023-03-16T16:54:21.307Z,100432.28
2023-03-16T16:56:52.274Z,100445.25
2023-03-16T16:59:24.411Z,100446.13
2023-03-16T17:01:54.050Z,100444.31
2023-03-16T17:04:24.734Z,100448.62
2023-03-16T17:06:55.495Z,100451.94
2023-03-16T17:09:23.563Z,100452.91
2023-03-16T17:11:51.862Z,100453.66
2023-03-16T17:14:21.282Z,100459.03
2023-03-16T17:16:51.632Z,100462.53
2023-03-16T17:19:24.356Z,100462.69
2023-03-16T17:21:53.485Z,100464.44
2023-03-16T17:24:22.590Z,100471.44
2023-03-16T17:26:55.752Z,100465.28
2023-03-16T17:29:29.873Z,100467.03
2023-03-16T17:31:57.411Z,100473.97
2023-03-16T17:34:27.280Z,100476.50
2023-03-16T17:36:54.982Z,100475.69
2023-03-16T17:39:24.274Z,100466.91
2023-03-16T17:41:57.237Z,100472.84
2023-03-16T17:44:25.916Z,100478.09
2023-03-16T17:46:54.381Z,100479.69
2023-03-16T17:49:24.171Z,100484.03
2023-03-16T17:51:51.525Z,100491.81
2023-03-16T17:54:19.329Z,100489.03
2023-03-16T17:56:47.987Z,100497.56
2023-03-16T17:59:18.104Z,100493.22
2023-03-16T18:01:47.075Z,100500.78
2023-03-16T18:04:23.569Z,100495.63
2023-03-16T18:06:51.488Z,100503.38
2023-03-16T18:09:20.453Z,100504.91
2023-03-16T18:11:49.912Z,100508.41
2023-03-16T18:14:36.569Z,100502.25
2023-03-16T18:17:28.480Z,100508.37
2023-03-16T18:19:56.059Z,100521.94
2023-03-16T18:22:25.130Z,100518.41
2023-03-16T18:24:53.974Z,100522.66
2023-03-16T18:27:22.395Z,100527.75
2023-03-16T18:29:50.095Z,100534.44
2023-03-16T18:32:17.378Z,100527.63
2023-03-16T18:34:45.596Z,100527.34
2023-03-16T18:37:23.050Z,100531.72
2023-03-16T18:39:51.712Z,100525.44
2023-03-16T18:42:20.973Z,100532.28
2023-03-16T18:44:48.907Z,100534.78
2023-03-16T18:47:22.227Z,100531.38
2023-03-16T18:49:53.332Z,100534.88
2023-03-16T18:52:20.696Z,100542.59
2023-03-16T18:54:49.168Z,100549.63
2023-03-16T18:57:19.063Z,100545.41
2023-03-16T18:59:47.125Z,100552.84
2023-03-16T19:02:28.475Z,100560.47
2023-03-16T19:04:58.074Z,100559.50
2023-03-16T19:07:31.581Z,100560.09
2023-03-16T19:10:02.321Z,100560.88
2023-03-16T19:12:29.692Z,100571.16
2023-03-16T19:14:57.070Z,100571.34
2023-03-16T19:17:24.757Z,100573.88
2023-03-16T19:19:52.270Z,100591.06
2023-03-16T19:22:21.302Z,100617.56
2023-03-16T19:24:51.660Z,100613.47
2023-03-16T19:27:26.823Z,100605.56
2023-03-16T19:29:54.927Z,100620.16
2023-03-16T19:32:22.336Z,100616.66
2023-03-16T19:34:50.102Z,100621.06
2023-03-16T19:37:23.694Z,100628.75
2023-03-16T19:39:51.298Z,100636.53
2023-03-16T19:42:32.952Z,100636.34
2023-03-16T19:45:00.534Z,100634.59
2023-03-16T19:47:30.972Z,100640.53
2023-03-16T19:49:59.392Z,100654.06
2023-03-16T19:52:28.267Z,100658.00
2023-03-16T19:54:56.235Z,100650.13
2023-03-16T19:57:24.099Z,100651.94
2023-03-16T19:59:56.201Z,100652.75
2023-03-16T20:02:26.648Z,100656.16
2023-03-16T20:04:55.309Z,100659.41
2023-03-16T20:07:22.905Z,100666.31
2023-03-16T20:09:51.212Z,100674.84
2023-03-16T20:12:24.602Z,100668.53
2023-03-16T20:14:52.496Z,100673.78
2023-03-16T20:17:23.356Z,100673.56
2023-03-16T20:19:51.407Z,100669.91
2023-03-16T20:22:23.874Z,100670.87
2023-03-16T20:24:52.449Z,100669.75
2023-03-16T20:27:21.304Z,100676.44
2023-03-16T20:29:49.235Z,100680.03
2023-03-16T20:32:16.778Z,100677.91
2023-03-16T20:34:44.638Z,100678.59
2023-03-16T20:37:23.820Z,100681.16
2023-03-16T20:39:52.515Z,100682.84
2023-03-16T20:42:24.233Z,100690.31
2023-03-16T20:44:52.187Z,100693.94
2023-03-16T20:47:22.648Z,100698.13
2023-03-16T20:49:51.530Z,100698.03
2023-03-16T20:52:21.639Z,100698.63
2023-03-16T20:54:49.807Z,100697.75
2023-03-16T20:57:21.115Z,100702.69
2023-03-16T20:59:51.480Z,100690.53
2023-03-16T21:02:29.840Z,100694.69
2023-03-16T21:04:59.027Z,100708.50
2023-03-16T21:07:27.115Z,100712.38
2023-03-16T21:09:54.513Z,100706.25
2023-03-16T21:12:25.761Z,100714.91
2023-03-16T21:14:53.243Z,100711.22
2023-03-16T21:17:25.924Z,100713.34
2023-03-16T21:19:54.052Z,100711.31
2023-03-16T21:22:32.110Z,100713.81
2023-03-16T21:24:59.784Z,100719.78
2023-03-16T21:27:32.155Z,100720.69
2023-03-16T21:30:07.204Z,100719.53
2023-03-16T21:32:34.794Z,100725.47
2023-03-16T21:35:04.236Z,100718.50
2023-03-16T21:37:31.668Z,100722.81
2023-03-16T21:40:01.172Z,100729.03
2023-03-16T21:42:29.537Z,100731.59
2023-03-16T21:44:57.245Z,100730.66
2023-03-16T21:47:28.860Z,100728.13
2023-03-16T21:49:57.442Z,100730.84
2023-03-16T21:52:28.113Z,100730.94
2023-03-16T21:54:57.373Z,100721.63
2023-03-16T21:57:25.078Z,100720.06
2023-03-16T21:59:52.429Z,100723.34
2023-03-16T22:02:23.021Z,100729.03
2023-03-16T22:04:51.811Z,100734.28
2023-03-16T22:07:19.591Z,100733.28
2023-03-16T22:09:46.939Z,100734.78
2023-03-16T22:12:14.618Z,100730.12
2023-03-16T22:14:42.141Z,100735.84
2023-03-16T22:17:20.116Z,100741.66
2023-03-16T22:19:48.218Z,100744.16
2023-03-16T22:22:16.824Z,100747.56
2023-03-16T22:24:44.243Z,100746.53
2023-03-16T22:27:21.646Z,100741.59
2023-03-16T22:29:49.884Z,100744.78
2023-03-16T22:32:19.756Z,100744.78
2023-03-16T22:34:52.605Z,100743.84
2023-03-16T22:37:23.107Z,100738.25
2023-03-16T22:39:50.780Z,100742.28
2023-03-16T22:42:28.523Z,100742.25
2023-03-16T22:44:56.386Z,100745.06
2023-03-16T22:47:26.293Z,100741.13
2023-03-16T22:49:54.144Z,100744.31
2023-03-16T22:52:29.527Z,100753.16
2023-03-16T22:54:58.749Z,100747.62
2023-03-16T22:57:26.716Z,100743.75
2023-03-16T22:59:54.138Z,100740.19
2023-03-16T23:02:25.245Z,100743.25
2023-03-16T23:04:53.083Z,100741.72
2023-03-16T23:07:20.525Z,100749.94
2023-03-16T23:09:48.476Z,100758.28
2023-03-16T23:12:20.290Z,100766.03
2023-03-16T23:14:47.655Z,100758.72
2023-03-16T23:17:20.324Z,100758.69
2023-03-16T23:19:48.332Z,100759.53
2023-03-16T23:22:15.832Z,100760.22
2023-03-16T23:24:43.179Z,100759.37
2023-03-16T23:27:17.852Z,100769.69
2023-03-16T23:29:46.004Z,100768.16
2023-03-16T23:32:15.374Z,100762.34
2023-03-16T23:34:42.723Z,100763.63
2023-03-16T23:37:10.251Z,100770.59
2023-03-16T23:39:37.919Z,100770.72
2023-03-16T23:42:05.488Z,100765.97
2023-03-16T23:44:32.855Z,100769.47
2023-03-16T23:47:00.745Z,100762.31
2023-03-16T23:49:32.491Z,100781.03
2023-03-16T23:52:01.710Z,100785.75
2023-03-16T23:54:31.561Z,100780.69
2023-03-16T23:56:59.065Z,100783.19
2023-03-16T23:59:27.714Z,100777.56
